createdAt,value
2023-04-15T00:00:07.832Z,12.61
2023-04-15T00:01:07.864Z,12.58
2023-04-15T00:02:07.953Z,12.55
2023-04-15T00:03:07.880Z,12.52
2023-04-15T00:04:07.880Z,12.50
2023-04-15T00:05:07.882Z,12.32
2023-04-15T00:06:07.827Z,12.34
2023-04-15T00:07:07.792Z,12.39
2023-04-15T00:08:07.823Z,12.41
2023-04-15T00:09:07.860Z,12.44
2023-04-15T00:10:07.988Z,12.47
2023-04-15T00:11:08.042Z,12.52
2023-04-15T00:12:08.048Z,12.51
2023-04-15T00:13:08.084Z,12.55
2023-04-15T00:14:08.105Z,12.52
2023-04-15T00:15:08.513Z,12.51
2023-04-15T00:16:08.251Z,12.47
2023-04-15T00:17:08.281Z,12.32
2023-04-15T00:18:08.397Z,12.30
2023-04-15T00:19:08.579Z,12.17
2023-04-15T00:20:08.372Z,12.19
2023-04-15T00:21:08.404Z,11.65
2023-04-15T00:22:08.472Z,11.64
2023-04-15T00:23:08.518Z,11.64
2023-04-15T00:24:08.595Z,11.74
2023-04-15T00:25:08.638Z,11.79
2023-04-15T00:26:08.702Z,11.84
2023-04-15T00:27:08.715Z,11.92
2023-04-15T00:28:08.778Z,12.02
2023-04-15T00:29:08.830Z,12.07
2023-04-15T00:30:08.872Z,12.16
2023-04-15T00:31:08.949Z,12.24
2023-04-15T00:32:08.952Z,12.30
2023-04-15T00:33:09.005Z,12.37
2023-04-15T00:34:09.011Z,12.40
2023-04-15T00:35:09.010Z,12.43
2023-04-15T00:36:09.024Z,12.45
2023-04-15T00:37:09.048Z,12.47
2023-04-15T00:38:09.135Z,12.43
2023-04-15T00:39:09.252Z,12.05
2023-04-15T00:40:09.372Z,11.92
2023-04-15T00:41:09.471Z,11.77
2023-04-15T00:42:09.566Z,11.61
2023-04-15T00:43:09.654Z,11.41
2023-04-15T00:44:09.710Z,11.41
2023-04-15T00:45:09.809Z,11.35
2023-04-15T00:46:09.928Z,11.29
2023-04-15T00:47:09.921Z,11.48
2023-04-15T00:48:09.969Z,11.61
2023-04-15T00:49:10.031Z,11.55
2023-04-15T00:50:10.097Z,11.54
2023-04-15T00:51:10.193Z,11.64
2023-04-15T00:52:10.207Z,11.77
2023-04-15T00:53:10.268Z,11.68
2023-04-15T00:54:10.340Z,11.57
2023-04-15T00:55:10.325Z,11.43
2023-04-15T00:56:10.407Z,11.47
2023-04-15T00:57:10.497Z,11.40
2023-04-15T00:58:10.503Z,11.35
2023-04-15T00:59:10.552Z,11.40
2023-04-15T01:00:10.626Z,11.43
2023-04-15T01:01:10.785Z,11.37
2023-04-15T01:02:10.809Z,11.34
2023-04-15T01:03:10.993Z,11.26
2023-04-15T01:04:11.015Z,11.24
2023-04-15T01:05:10.913Z,11.40
2023-04-15T01:06:11.067Z,11.37
2023-04-15T01:07:11.094Z,11.50
2023-04-15T01:08:11.102Z,11.60
2023-04-15T01:09:11.168Z,11.47
2023-04-15T01:10:11.224Z,11.41
2023-04-15T01:11:11.244Z,11.54
2023-04-15T01:12:11.347Z,11.65
2023-04-15T01:13:11.327Z,11.72
2023-04-15T01:14:11.436Z,11.69
2023-04-15T01:15:11.457Z,11.44
2023-04-15T01:16:11.521Z,11.40
2023-04-15T01:17:11.562Z,11.48
2023-04-15T01:18:11.587Z,11.43
2023-04-15T01:19:11.608Z,11.48
2023-04-15T01:20:11.704Z,11.38
2023-04-15T01:21:11.770Z,11.38
2023-04-15T01:22:11.801Z,11.37
2023-04-15T01:23:11.763Z,11.41
2023-04-15T01:24:12.161Z,11.41
2023-04-15T01:25:11.929Z,11.60
2023-04-15T01:26:12.016Z,11.72
2023-04-15T01:27:12.038Z,11.84
2023-04-15T01:28:12.069Z,11.88
2023-04-15T01:29:12.128Z,11.79
2023-04-15T01:30:12.174Z,11.95
2023-04-15T01:31:12.372Z,11.65
2023-04-15T01:32:12.288Z,11.58
2023-04-15T01:33:12.321Z,11.57
2023-04-15T01:34:12.372Z,11.45
2023-04-15T01:35:12.399Z,11.54
2023-04-15T01:36:12.517Z,11.65
2023-04-15T01:37:12.517Z,11.68
2023-04-15T01:38:12.557Z,11.78
2023-04-15T01:39:12.612Z,11.78
2023-04-15T01:40:12.656Z,11.86
2023-04-15T01:41:12.684Z,11.96
2023-04-15T01:42:12.677Z,12.03
2023-04-15T01:43:12.760Z,12.15
2023-04-15T01:44:12.860Z,12.16
2023-04-15T01:45:12.867Z,12.23
2023-04-15T01:46:12.914Z,12.29
2023-04-15T01:47:12.907Z,12.29
2023-04-15T01:48:13.191Z,12.33
2023-04-15T01:49:12.918Z,12.36
2023-04-15T01:50:12.937Z,12.37
2023-04-15T01:51:12.948Z,12.22
2023-04-15T01:52:12.924Z,12.16
2023-04-15T01:53:13.043Z,12.02
2023-04-15T01:54:13.088Z,11.78
2023-04-15T01:55:13.122Z,11.77
2023-04-15T01:56:14.763Z,11.89
2023-04-15T01:57:13.203Z,11.95
2023-04-15T01:58:13.188Z,12.06
2023-04-15T01:59:13.187Z,12.09
2023-04-15T02:00:13.154Z,12.12
2023-04-15T02:01:13.179Z,12.16
2023-04-15T02:02:13.149Z,12.20
2023-04-15T02:03:13.217Z,12.27
2023-04-15T02:04:13.133Z,12.29
2023-04-15T02:05:13.120Z,12.30
2023-04-15T02:06:13.153Z,12.24
2023-04-15T02:07:13.085Z,12.24
2023-04-15T02:08:13.091Z,12.26
2023-04-15T02:09:13.143Z,12.24
2023-04-15T02:10:13.101Z,12.20
2023-04-15T02:11:13.091Z,12.23
2023-04-15T02:12:13.085Z,12.17
2023-04-15T02:13:13.093Z,12.20
2023-04-15T02:14:13.050Z,12.15
2023-04-15T02:15:13.087Z,12.15
2023-04-15T02:16:13.092Z,12.19
2023-04-15T02:17:13.075Z,12.24
2023-04-15T02:18:13.036Z,12.32
2023-04-15T02:19:13.026Z,12.36
2023-04-15T02:20:13.056Z,12.37
2023-04-15T02:21:13.048Z,12.39
2023-04-15T02:22:13.001Z,12.40
2023-04-15T02:23:13.056Z,12.27
2023-04-15T02:24:12.986Z,12.13
2023-04-15T02:25:12.976Z,12.02
2023-04-15T02:26:13.015Z,11.89
2023-04-15T02:27:12.989Z,11.72
2023-04-15T02:28:12.993Z,11.72
2023-04-15T02:29:13.005Z,11.82
2023-04-15T02:30:12.963Z,11.92
2023-04-15T02:31:12.997Z,11.99
2023-04-15T02:32:13.161Z,12.09
2023-04-15T02:33:12.951Z,12.17
2023-04-15T02:34:12.961Z,12.23
2023-04-15T02:35:12.971Z,12.24
2023-04-15T02:36:12.938Z,12.30
2023-04-15T02:37:12.935Z,12.36
2023-04-15T02:38:12.908Z,12.39
2023-04-15T02:39:12.994Z,12.43
2023-04-15T02:40:13.011Z,12.45
2023-04-15T02:41:13.092Z,12.44
2023-04-15T02:42:13.109Z,12.41
2023-04-15T02:43:13.180Z,12.41
2023-04-15T02:44:13.172Z,12.44
2023-04-15T02:45:13.270Z,12.41
2023-04-15T02:46:13.360Z,12.39
2023-04-15T02:47:13.321Z,12.40
2023-04-15T02:48:13.367Z,12.41
2023-04-15T02:49:13.427Z,12.45
2023-04-15T02:50:13.467Z,12.41
2023-04-15T02:51:13.606Z,12.43
2023-04-15T02:52:13.569Z,12.43
2023-04-15T02:53:13.634Z,12.45
2023-04-15T02:54:13.685Z,12.44
2023-04-15T02:55:13.745Z,12.45
2023-04-15T02:56:13.802Z,12.34
2023-04-15T02:57:13.830Z,12.37
2023-04-15T02:58:13.933Z,12.33
2023-04-15T02:59:13.866Z,12.32
2023-04-15T03:00:13.875Z,12.36
2023-04-15T03:01:13.991Z,12.39
2023-04-15T03:02:14.047Z,12.40
2023-04-15T03:03:14.218Z,12.34
2023-04-15T03:04:14.067Z,12.33
2023-04-15T03:05:14.084Z,12.33
2023-04-15T03:06:14.142Z,12.37
2023-04-15T03:07:14.192Z,12.39
2023-04-15T03:08:14.204Z,12.41
2023-04-15T03:09:14.301Z,12.40
2023-04-15T03:10:14.318Z,12.37
2023-04-15T03:11:14.372Z,12.39
2023-04-15T03:12:14.429Z,12.41
2023-04-15T03:13:14.529Z,12.43
2023-04-15T03:14:14.549Z,12.44
2023-04-15T03:15:14.567Z,12.41
2023-04-15T03:16:14.746Z,12.43
2023-04-15T03:17:14.724Z,12.44
2023-04-15T03:18:14.728Z,12.44
2023-04-15T03:19:14.789Z,12.44
2023-04-15T03:20:14.915Z,12.43
2023-04-15T03:21:14.928Z,12.44
2023-04-15T03:22:14.974Z,12.44
2023-04-15T03:23:15.040Z,12.44
2023-04-15T03:24:15.129Z,12.45
2023-04-15T03:25:15.123Z,12.43
2023-04-15T03:26:15.200Z,12.43
2023-04-15T03:27:15.201Z,12.47
2023-04-15T03:28:15.294Z,12.45
2023-04-15T03:29:15.313Z,12.44
2023-04-15T03:30:15.390Z,12.45
2023-04-15T03:31:15.598Z,12.43
2023-04-15T03:32:15.551Z,12.44
2023-04-15T03:33:15.630Z,12.44
2023-04-15T03:34:15.653Z,12.40
2023-04-15T03:35:15.689Z,12.34
2023-04-15T03:36:15.788Z,12.20
2023-04-15T03:37:15.820Z,11.93
2023-04-15T03:38:15.870Z,11.97
2023-04-15T03:39:15.892Z,12.03
2023-04-15T03:40:15.986Z,11.88
2023-04-15T03:41:16.007Z,11.93
2023-04-15T03:42:16.025Z,11.99
2023-04-15T03:43:16.035Z,11.95
2023-04-15T03:44:16.090Z,11.99
2023-04-15T03:45:16.150Z,11.97
2023-04-15T03:46:16.180Z,12.03
2023-04-15T03:47:16.185Z,12.03
2023-04-15T03:48:18.178Z,12.07
2023-04-15T03:49:16.261Z,12.10
2023-04-15T03:50:16.303Z,12.13
2023-04-15T03:51:16.373Z,12.13
2023-04-15T03:52:16.403Z,12.19
2023-04-15T03:53:16.407Z,12.15
2023-04-15T03:54:16.393Z,12.16
2023-04-15T03:55:16.433Z,12.16
2023-04-15T03:56:16.535Z,12.12
2023-04-15T03:57:16.554Z,12.13
2023-04-15T03:58:16.581Z,12.13
2023-04-15T03:59:16.620Z,12.15
2023-04-15T04:00:16.701Z,12.19
2023-04-15T04:01:16.773Z,12.22
2023-04-15T04:02:16.812Z,12.20
2023-04-15T04:03:16.860Z,12.00
2023-04-15T04:04:16.935Z,11.79
2023-04-15T04:05:16.813Z,11.64
2023-04-15T04:06:16.930Z,11.74
2023-04-15T04:07:16.910Z,11.78
2023-04-15T04:08:16.915Z,11.84
2023-04-15T04:09:16.901Z,11.90
2023-04-15T04:10:16.921Z,11.84
2023-04-15T04:11:16.941Z,11.77
2023-04-15T04:12:17.016Z,11.77
2023-04-15T04:13:16.959Z,11.81
2023-04-15T04:14:16.951Z,11.85
2023-04-15T04:15:16.968Z,11.86
2023-04-15T04:16:17.033Z,11.89
2023-04-15T04:17:17.047Z,11.90
2023-04-15T04:18:17.043Z,11.86
2023-04-15T04:19:17.064Z,11.86
2023-04-15T04:20:17.069Z,11.78
2023-04-15T04:21:17.161Z,11.75
2023-04-15T04:22:17.101Z,11.81
2023-04-15T04:23:17.135Z,11.79
2023-04-15T04:24:17.116Z,11.81
2023-04-15T04:25:17.147Z,11.71
2023-04-15T04:26:17.189Z,11.75
2023-04-15T04:27:17.203Z,11.31
2023-04-15T04:28:17.295Z,11.26
2023-04-15T04:29:17.324Z,11.26
2023-04-15T04:30:17.425Z,11.16
2023-04-15T04:31:17.490Z,10.85
2023-04-15T04:32:17.477Z,10.94
2023-04-15T04:33:17.551Z,10.96
2023-04-15T04:34:17.629Z,11.02
2023-04-15T04:35:17.657Z,11.13
2023-04-15T04:36:17.730Z,11.16
2023-04-15T04:37:17.739Z,11.22
2023-04-15T04:38:17.830Z,11.22
2023-04-15T04:39:17.835Z,11.23
2023-04-15T04:40:17.867Z,11.17
2023-04-15T04:41:17.967Z,11.16
2023-04-15T04:42:17.968Z,11.19
2023-04-15T04:43:18.039Z,11.22
2023-04-15T04:44:18.065Z,11.14
2023-04-15T04:45:18.094Z,11.06
2023-04-15T04:46:18.218Z,11.14
2023-04-15T04:47:18.205Z,11.14
2023-04-15T04:48:18.294Z,11.22
2023-04-15T04:49:18.346Z,11.14
2023-04-15T04:50:18.406Z,11.27
2023-04-15T04:51:18.431Z,11.30
2023-04-15T04:52:18.443Z,11.22
2023-04-15T04:53:18.586Z,11.14
2023-04-15T04:54:18.671Z,11.19
2023-04-15T04:55:18.662Z,11.22
2023-04-15T04:56:18.733Z,11.13
2023-04-15T04:57:18.731Z,10.95
2023-04-15T04:58:18.777Z,10.85
2023-04-15T04:59:19.491Z,10.76
2023-04-15T05:00:18.814Z,10.62
2023-04-15T05:01:18.874Z,10.71
2023-04-15T05:02:18.963Z,10.85
2023-04-15T05:03:19.067Z,10.67
2023-04-15T05:04:19.099Z,10.82
2023-04-15T05:05:18.865Z,10.91
2023-04-15T05:06:18.908Z,11.02
2023-04-15T05:07:18.921Z,11.09
2023-04-15T05:08:18.963Z,11.16
2023-04-15T05:09:19.002Z,11.20
2023-04-15T05:10:18.973Z,11.26
2023-04-15T05:11:18.980Z,11.33
2023-04-15T05:12:18.992Z,11.37
2023-04-15T05:13:18.993Z,11.35
2023-04-15T05:14:19.069Z,11.43
2023-04-15T05:15:19.048Z,11.48
2023-04-15T05:16:19.154Z,11.45
2023-04-15T05:17:19.048Z,11.53
2023-04-15T05:18:19.038Z,11.50
2023-04-15T05:19:19.143Z,11.55
2023-04-15T05:20:19.162Z,11.57
2023-04-15T05:21:19.218Z,11.62
2023-04-15T05:22:19.259Z,11.68
2023-04-15T05:23:19.243Z,11.61
2023-04-15T05:24:19.255Z,11.64
2023-04-15T05:25:19.278Z,11.64
2023-04-15T05:26:19.291Z,11.64
2023-04-15T05:27:19.298Z,11.64
2023-04-15T05:28:19.299Z,11.65
2023-04-15T05:29:19.317Z,11.68
2023-04-15T05:30:19.341Z,11.77
2023-04-15T05:31:19.440Z,11.79
2023-04-15T05:32:19.396Z,11.84
2023-04-15T05:33:19.396Z,11.84
2023-04-15T05:34:19.358Z,11.88
2023-04-15T05:35:19.359Z,11.89
2023-04-15T05:36:19.375Z,11.95
2023-04-15T05:37:19.341Z,11.96
2023-04-15T05:38:19.398Z,11.96
2023-04-15T05:39:19.410Z,12.00
2023-04-15T05:40:19.444Z,11.89
2023-04-15T05:41:19.990Z,11.75
2023-04-15T05:42:19.444Z,11.77
2023-04-15T05:43:19.482Z,11.58
2023-04-15T05:44:19.487Z,11.48
2023-04-15T05:45:19.550Z,11.61
2023-04-15T05:46:19.706Z,11.67
2023-04-15T05:47:19.702Z,11.61
2023-04-15T05:48:19.769Z,11.69
2023-04-15T05:49:19.801Z,11.61
2023-04-15T05:50:19.870Z,11.71
2023-04-15T05:51:19.943Z,11.78
2023-04-15T05:52:19.959Z,11.88
2023-04-15T05:53:20.056Z,11.95
2023-04-15T05:54:20.347Z,11.97
2023-04-15T05:55:20.163Z,12.00
2023-04-15T05:56:20.227Z,11.93
2023-04-15T05:57:20.229Z,11.84
2023-04-15T05:58:20.275Z,11.74
2023-04-15T05:59:20.322Z,11.53
2023-04-15T06:00:20.373Z,11.78
2023-04-15T06:01:20.438Z,11.84
2023-04-15T06:02:20.651Z,11.92
2023-04-15T06:03:20.607Z,11.99
2023-04-15T06:04:20.633Z,12.00
2023-04-15T06:05:20.639Z,12.00
2023-04-15T06:06:20.692Z,12.00
2023-04-15T06:07:20.712Z,12.05
2023-04-15T06:08:20.730Z,12.10
2023-04-15T06:09:20.760Z,12.17
2023-04-15T06:10:20.808Z,12.22
2023-04-15T06:11:20.909Z,12.26
2023-04-15T06:12:20.849Z,12.34
2023-04-15T06:13:20.921Z,12.39
2023-04-15T06:14:20.903Z,12.45
2023-04-15T06:15:20.967Z,12.41
2023-04-15T06:16:21.023Z,12.44
2023-04-15T06:17:21.048Z,12.36
2023-04-15T06:18:21.038Z,12.30
2023-04-15T06:19:21.105Z,12.23
2023-04-15T06:20:21.048Z,12.30
2023-04-15T06:21:21.109Z,12.27
2023-04-15T06:22:21.056Z,12.26
2023-04-15T06:23:21.043Z,12.27
2023-04-15T06:24:21.063Z,11.92
2023-04-15T06:25:21.040Z,12.16
2023-04-15T06:26:21.064Z,12.32
2023-04-15T06:27:21.055Z,12.37
2023-04-15T06:28:21.081Z,12.43
2023-04-15T06:29:21.029Z,12.30
2023-04-15T06:30:22.937Z,12.36
2023-04-15T06:31:21.057Z,12.39
2023-04-15T06:32:21.054Z,12.48
2023-04-15T06:33:21.208Z,12.58
2023-04-15T06:34:20.981Z,12.65
2023-04-15T06:35:20.966Z,12.61
2023-04-15T06:36:21.001Z,12.54
2023-04-15T06:37:20.944Z,12.64
2023-04-15T06:38:20.993Z,12.74
2023-04-15T06:39:20.958Z,12.78
2023-04-15T06:40:20.959Z,12.82
2023-04-15T06:41:20.961Z,12.84
2023-04-15T06:42:20.976Z,12.71
2023-04-15T06:43:20.997Z,12.77
2023-04-15T06:44:20.914Z,12.84
2023-04-15T06:45:20.893Z,12.88
2023-04-15T06:46:21.370Z,12.96
2023-04-15T06:47:20.899Z,13.05
2023-04-15T06:48:20.900Z,13.03
2023-04-15T06:49:20.875Z,13.07
2023-04-15T06:50:20.885Z,13.02
2023-04-15T06:51:20.878Z,13.05
2023-04-15T06:52:20.879Z,12.91
2023-04-15T06:53:20.857Z,12.95
2023-04-15T06:54:20.836Z,12.95
2023-04-15T06:55:20.833Z,12.91
2023-04-15T06:56:20.872Z,12.67
2023-04-15T06:57:20.880Z,12.84
2023-04-15T06:58:20.897Z,12.94
2023-04-15T06:59:20.804Z,12.85
2023-04-15T07:00:20.807Z,12.82
2023-04-15T07:01:21.657Z,12.92
2023-04-15T07:02:20.860Z,12.96
2023-04-15T07:03:20.771Z,12.65
2023-04-15T07:04:20.869Z,12.44
2023-04-15T07:05:20.777Z,12.48
2023-04-15T07:06:20.800Z,12.51
2023-04-15T07:07:20.760Z,12.55
2023-04-15T07:08:20.847Z,12.68
2023-04-15T07:09:20.702Z,12.55
2023-04-15T07:10:20.762Z,12.57
2023-04-15T07:11:20.727Z,12.48
2023-04-15T07:12:20.730Z,12.39
2023-04-15T07:13:20.688Z,12.60
2023-04-15T07:14:20.708Z,12.37
2023-04-15T07:15:20.732Z,12.51
2023-04-15T07:16:20.834Z,12.64
2023-04-15T07:17:20.695Z,12.72
2023-04-15T07:18:20.673Z,12.85
2023-04-15T07:19:20.667Z,12.89
2023-04-15T07:20:20.694Z,12.55
2023-04-15T07:21:20.706Z,12.34
2023-04-15T07:22:20.666Z,12.50
2023-04-15T07:23:20.762Z,12.72
2023-04-15T07:24:20.599Z,12.91
2023-04-15T07:25:20.635Z,13.07
2023-04-15T07:26:20.652Z,13.22
2023-04-15T07:27:20.604Z,13.33
2023-04-15T07:28:20.607Z,13.44
2023-04-15T07:29:20.594Z,13.51
2023-04-15T07:30:20.666Z,13.53
2023-04-15T07:31:20.718Z,13.36
2023-04-15T07:32:20.726Z,13.22
2023-04-15T07:33:20.687Z,13.37
2023-04-15T07:34:20.686Z,13.54
2023-04-15T07:35:20.703Z,13.65
2023-04-15T07:36:20.712Z,13.79
2023-04-15T07:37:20.874Z,13.81
2023-04-15T07:38:20.761Z,13.89
2023-04-15T07:39:20.773Z,13.96
2023-04-15T07:40:20.837Z,13.81
2023-04-15T07:41:20.888Z,13.71
2023-04-15T07:42:21.911Z,13.40
2023-04-15T07:43:21.019Z,13.50
2023-04-15T07:44:21.257Z,13.50
2023-04-15T07:45:21.091Z,13.53
2023-04-15T07:46:21.229Z,13.40
2023-04-15T07:47:21.172Z,13.16
2023-04-15T07:48:21.222Z,13.06
2023-04-15T07:49:21.322Z,13.17
2023-04-15T07:50:21.340Z,13.34
2023-04-15T07:51:21.373Z,13.55
2023-04-15T07:52:21.385Z,13.64
2023-04-15T07:53:21.393Z,13.67
2023-04-15T07:54:21.382Z,13.58
2023-04-15T07:55:21.450Z,13.74
2023-04-15T07:56:21.467Z,13.85
2023-04-15T07:57:21.478Z,13.95
2023-04-15T07:58:21.482Z,14.06
2023-04-15T07:59:21.574Z,14.17
2023-04-15T08:00:21.590Z,14.23
2023-04-15T08:01:21.622Z,14.33
2023-04-15T08:02:21.794Z,14.40
2023-04-15T08:03:21.728Z,14.39
2023-04-15T08:04:21.935Z,14.37
2023-04-15T08:05:21.807Z,13.98
2023-04-15T08:06:21.859Z,14.12
2023-04-15T08:07:21.942Z,14.26
2023-04-15T08:08:21.898Z,14.05
2023-04-15T08:09:21.970Z,14.09
2023-04-15T08:10:22.019Z,14.12
2023-04-15T08:11:22.019Z,14.23
2023-04-15T08:12:22.062Z,14.12
2023-04-15T08:13:22.034Z,14.06
2023-04-15T08:14:22.062Z,14.17
2023-04-15T08:15:22.093Z,14.12
2023-04-15T08:16:22.169Z,14.06
2023-04-15T08:17:22.172Z,14.09
2023-04-15T08:18:22.181Z,14.09
2023-04-15T08:19:22.192Z,14.15
2023-04-15T08:20:22.253Z,14.23
2023-04-15T08:21:22.276Z,14.34
2023-04-15T08:22:22.453Z,14.47
2023-04-15T08:23:22.314Z,14.11
2023-04-15T08:24:22.391Z,14.03
2023-04-15T08:25:22.443Z,14.01
2023-04-15T08:26:22.501Z,13.82
2023-04-15T08:27:22.497Z,13.85
2023-04-15T08:28:22.538Z,14.08
2023-04-15T08:29:22.566Z,14.20
2023-04-15T08:30:22.629Z,13.81
2023-04-15T08:31:22.733Z,13.92
2023-04-15T08:32:22.770Z,13.62
2023-04-15T08:33:22.665Z,13.86
2023-04-15T08:34:22.694Z,13.96
2023-04-15T08:35:22.717Z,13.75
2023-04-15T08:36:22.685Z,13.65
2023-04-15T08:37:22.683Z,13.65
2023-04-15T08:38:22.678Z,13.75
2023-04-15T08:39:22.698Z,13.74
2023-04-15T08:40:22.701Z,13.98
2023-04-15T08:41:22.724Z,14.15
2023-04-15T08:42:22.702Z,14.37
2023-04-15T08:43:22.710Z,14.58
2023-04-15T08:44:22.729Z,14.77
2023-04-15T08:45:22.743Z,14.88
2023-04-15T08:46:22.836Z,14.84
2023-04-15T08:47:22.894Z,15.00
2023-04-15T08:48:22.825Z,15.00
2023-04-15T08:49:22.861Z,15.02
2023-04-15T08:50:22.909Z,15.06
2023-04-15T08:51:24.560Z,15.15
2023-04-15T08:52:23.648Z,15.18
2023-04-15T08:53:23.018Z,15.26
2023-04-15T08:54:22.995Z,15.33
2023-04-15T08:55:22.957Z,15.40
2023-04-15T08:56:22.939Z,15.41
2023-04-15T08:57:22.956Z,15.41
2023-04-15T08:58:22.983Z,15.44
2023-04-15T08:59:23.004Z,15.54
2023-04-15T09:00:23.047Z,15.57
2023-04-15T09:01:23.171Z,15.50
2023-04-15T09:02:23.217Z,15.46
2023-04-15T09:03:23.274Z,15.41
2023-04-15T09:04:23.284Z,14.94
2023-04-15T09:05:24.059Z,15.10
2023-04-15T09:06:23.322Z,15.23
2023-04-15T09:07:23.335Z,15.34
2023-04-15T09:08:23.505Z,15.34
2023-04-15T09:09:23.324Z,15.32
2023-04-15T09:10:23.303Z,15.26
2023-04-15T09:11:23.325Z,14.96
2023-04-15T09:12:23.336Z,15.10
2023-04-15T09:13:23.245Z,15.26
2023-04-15T09:14:23.251Z,15.30
2023-04-15T09:15:23.265Z,15.33
2023-04-15T09:16:23.283Z,15.03
2023-04-15T09:17:23.286Z,15.21
2023-04-15T09:18:23.323Z,15.40
2023-04-15T09:19:23.246Z,15.51
2023-04-15T09:20:23.229Z,15.62
2023-04-15T09:21:23.203Z,15.71
2023-04-15T09:22:23.270Z,15.84
2023-04-15T09:23:23.290Z,15.62
2023-04-15T09:24:23.315Z,15.50
2023-04-15T09:25:23.283Z,15.60
2023-04-15T09:26:23.385Z,15.47
2023-04-15T09:27:23.348Z,15.69
2023-04-15T09:28:23.448Z,15.81
2023-04-15T09:29:23.437Z,15.92
2023-04-15T09:30:23.440Z,15.96
2023-04-15T09:31:23.535Z,15.68
2023-04-15T09:32:23.592Z,15.91
2023-04-15T09:33:23.521Z,16.15
2023-04-15T09:34:23.555Z,16.24
2023-04-15T09:35:23.537Z,16.33
2023-04-15T09:36:23.552Z,16.26
2023-04-15T09:37:32.086Z,16.05
2023-04-15T09:38:24.608Z,16.20
2023-04-15T09:39:23.593Z,16.29
2023-04-15T09:40:23.541Z,16.37
2023-04-15T09:41:23.561Z,16.43
2023-04-15T09:42:23.551Z,16.49
2023-04-15T09:43:23.545Z,16.36
2023-04-15T09:44:23.509Z,16.51
2023-04-15T09:45:24.520Z,16.54
2023-04-15T09:46:23.595Z,16.47
2023-04-15T09:47:23.506Z,16.54
2023-04-15T09:48:23.479Z,16.51
2023-04-15T09:49:23.495Z,16.57
2023-04-15T09:50:23.452Z,16.50
2023-04-15T09:51:23.551Z,16.50
2023-04-15T09:52:23.576Z,16.58
2023-04-15T09:53:23.576Z,16.40
2023-04-15T09:54:23.597Z,16.51
2023-04-15T09:55:23.663Z,15.89
2023-04-15T09:56:23.724Z,15.85
2023-04-15T09:57:23.710Z,15.92
2023-04-15T09:58:23.679Z,15.94
2023-04-15T09:59:23.669Z,15.98
2023-04-15T10:00:23.728Z,15.89
2023-04-15T10:01:23.825Z,15.96
2023-04-15T10:02:23.931Z,15.77
2023-04-15T10:03:24.059Z,15.75
2023-04-15T10:04:23.930Z,15.86
2023-04-15T10:05:23.837Z,15.94
2023-04-15T10:06:23.826Z,16.02
2023-04-15T10:07:23.895Z,16.15
2023-04-15T10:08:23.971Z,16.23
2023-04-15T10:09:23.946Z,16.27
2023-04-15T10:10:23.955Z,16.37
2023-04-15T10:11:24.049Z,16.33
2023-04-15T10:12:24.118Z,16.11
2023-04-15T10:13:24.143Z,15.67
2023-04-15T10:14:24.151Z,15.82
2023-04-15T10:15:24.093Z,15.99
2023-04-15T10:16:24.174Z,16.11
2023-04-15T10:17:24.239Z,16.13
2023-04-15T10:18:24.255Z,16.22
2023-04-15T10:19:24.290Z,16.30
2023-04-15T10:20:24.285Z,16.27
2023-04-15T10:21:24.305Z,16.24
2023-04-15T10:22:24.328Z,16.37
2023-04-15T10:23:24.329Z,16.47
2023-04-15T10:24:24.318Z,16.47
2023-04-15T10:25:24.341Z,16.58
2023-04-15T10:26:24.414Z,16.53
2023-04-15T10:27:24.465Z,16.43
2023-04-15T10:28:24.447Z,15.80
2023-04-15T10:29:24.452Z,15.57
2023-04-15T10:30:24.517Z,15.82
2023-04-15T10:31:24.555Z,16.02
2023-04-15T10:32:24.627Z,15.98
2023-04-15T10:33:24.567Z,16.24
2023-04-15T10:34:24.644Z,16.47
2023-04-15T10:35:24.643Z,16.54
2023-04-15T10:36:24.679Z,16.81
2023-04-15T10:37:24.780Z,16.81
2023-04-15T10:38:24.714Z,16.91
2023-04-15T10:39:24.742Z,16.81
2023-04-15T10:40:24.770Z,16.67
2023-04-15T10:41:24.853Z,16.64
2023-04-15T10:42:24.892Z,16.41
2023-04-15T10:43:24.855Z,16.08
2023-04-15T10:44:24.908Z,16.24
2023-04-15T10:45:24.900Z,15.98
2023-04-15T10:46:25.035Z,15.95
2023-04-15T10:47:25.086Z,15.81
2023-04-15T10:48:25.086Z,15.95
2023-04-15T10:49:25.117Z,16.26
2023-04-15T10:50:25.160Z,16.33
2023-04-15T10:51:25.162Z,16.70
2023-04-15T10:52:25.271Z,16.75
2023-04-15T10:53:25.232Z,16.92
2023-04-15T10:54:25.315Z,16.74
2023-04-15T10:55:25.316Z,16.82
2023-04-15T10:56:25.385Z,16.96
2023-04-15T10:57:25.475Z,17.04
2023-04-15T10:58:25.489Z,17.16
2023-04-15T10:59:25.532Z,17.27
2023-04-15T11:00:25.655Z,17.19
2023-04-15T11:01:25.644Z,16.96
2023-04-15T11:02:26.397Z,17.18
2023-04-15T11:03:25.746Z,17.16
2023-04-15T11:04:27.024Z,17.23
2023-04-15T11:05:25.782Z,17.02
2023-04-15T11:06:25.828Z,16.81
2023-04-15T11:07:25.837Z,16.56
2023-04-15T11:08:25.836Z,16.51
2023-04-15T11:09:25.882Z,16.78
2023-04-15T11:10:26.005Z,16.91
2023-04-15T11:11:25.982Z,17.06
2023-04-15T11:12:25.985Z,17.27
2023-04-15T11:13:25.932Z,17.53
2023-04-15T11:14:26.087Z,17.44
2023-04-15T11:15:26.018Z,17.49
2023-04-15T11:16:26.155Z,17.61
2023-04-15T11:17:26.136Z,17.68
2023-04-15T11:18:26.126Z,17.60
2023-04-15T11:19:26.207Z,17.64
2023-04-15T11:20:26.235Z,17.05
2023-04-15T11:21:26.286Z,17.02
2023-04-15T11:22:26.301Z,17.13
2023-04-15T11:23:26.269Z,17.34
2023-04-15T11:24:26.309Z,17.50
2023-04-15T11:25:26.366Z,17.80
2023-04-15T11:26:26.425Z,17.75
2023-04-15T11:27:26.423Z,17.75
2023-04-15T11:28:26.448Z,17.78
2023-04-15T11:29:26.525Z,17.61
2023-04-15T11:30:26.507Z,17.81
2023-04-15T11:31:26.596Z,17.58
2023-04-15T11:32:26.560Z,17.70
2023-04-15T11:33:26.540Z,17.84
2023-04-15T11:34:26.620Z,17.54
2023-04-15T11:35:26.667Z,17.74
2023-04-15T11:36:27.055Z,17.44
2023-04-15T11:37:26.715Z,17.49
2023-04-15T11:38:26.727Z,17.44
2023-04-15T11:39:26.774Z,17.51
2023-04-15T11:40:26.811Z,17.51
2023-04-15T11:41:26.812Z,17.60
2023-04-15T11:42:31.450Z,17.21
2023-04-15T11:43:27.852Z,17.32
2023-04-15T11:44:26.911Z,17.41
2023-04-15T11:45:26.878Z,17.41
2023-04-15T11:46:26.794Z,17.49
2023-04-15T11:47:26.827Z,17.49
2023-04-15T11:48:26.794Z,17.53
2023-04-15T11:49:26.802Z,17.51
2023-04-15T11:50:26.773Z,17.49
2023-04-15T11:51:26.864Z,17.39
2023-04-15T11:52:26.786Z,16.77
2023-04-15T11:53:26.760Z,16.99
2023-04-15T11:54:26.779Z,17.06
2023-04-15T11:55:26.768Z,16.99
2023-04-15T11:56:26.799Z,15.98
2023-04-15T11:57:26.726Z,15.88
2023-04-15T11:58:26.769Z,16.20
2023-04-15T11:59:38.999Z,16.12
2023-04-15T12:00:27.818Z,16.27
2023-04-15T12:01:26.799Z,16.09
2023-04-15T12:02:26.890Z,16.24
2023-04-15T12:03:26.875Z,16.13
2023-04-15T12:04:26.955Z,16.26
2023-04-15T12:05:26.803Z,16.17
2023-04-15T12:06:26.793Z,16.01
2023-04-15T12:07:26.759Z,16.04
2023-04-15T12:08:26.798Z,15.95
2023-04-15T12:09:26.731Z,16.17
2023-04-15T12:10:26.745Z,15.88
2023-04-15T12:11:26.724Z,16.20
2023-04-15T12:12:26.790Z,16.47
2023-04-15T12:13:26.753Z,16.47
2023-04-15T12:14:26.882Z,16.71
2023-04-15T12:15:26.900Z,16.99
2023-04-15T12:16:26.910Z,17.08
2023-04-15T12:17:27.085Z,17.02
2023-04-15T12:18:26.996Z,16.95
2023-04-15T12:19:27.081Z,17.09
2023-04-15T12:20:27.082Z,17.25
2023-04-15T12:21:27.157Z,17.16
2023-04-15T12:22:27.134Z,17.30
2023-04-15T12:23:27.182Z,17.36
2023-04-15T12:24:27.223Z,17.36
2023-04-15T12:25:27.237Z,17.39
2023-04-15T12:26:27.275Z,17.11
2023-04-15T12:27:29.632Z,17.12
2023-04-15T12:28:27.509Z,17.27
2023-04-15T12:29:27.425Z,17.40
2023-04-15T12:30:27.511Z,17.41
2023-04-15T12:31:27.585Z,17.05
2023-04-15T12:32:27.576Z,16.88
2023-04-15T12:33:27.607Z,17.04
2023-04-15T12:34:27.625Z,17.08
2023-04-15T12:35:27.581Z,17.18
2023-04-15T12:36:27.600Z,17.11
2023-04-15T12:37:28.064Z,16.72
2023-04-15T12:38:27.665Z,16.53
2023-04-15T12:39:29.261Z,16.63
2023-04-15T12:40:27.697Z,16.61
2023-04-15T12:41:27.705Z,16.49
2023-04-15T12:42:27.733Z,16.63
2023-04-15T12:43:27.756Z,16.71
2023-04-15T12:44:27.715Z,16.56
2023-04-15T12:45:29.490Z,16.71
2023-04-15T12:46:27.694Z,16.66
2023-04-15T12:47:27.761Z,16.82
2023-04-15T12:48:27.754Z,16.85
2023-04-15T12:49:27.720Z,16.67
2023-04-15T12:50:27.806Z,16.77
2023-04-15T12:51:28.127Z,16.50
2023-04-15T12:52:27.842Z,16.49